SBD1556 KRSW-KDEN
Flight info
| Callsign | SBD1556 |
|---|---|
| Flight time | N/A |
| Altitude | 30000 |
| Route | CSHEL7 JAWJA CABLO KWANE/N0474F320 KF33E TOTOE HALEN NIIXX3 |
| Aircraft | B738/M-SDE2E3FGHIRWXY/LB1 |
Departure
| Time | 2026-04-29 20:07 |
|---|---|
| Airport | Southwest Florida International Airport (KRSW) |
Arrival
| Time | N/A |
|---|---|
| Airport | Denver International Airport (KDEN) |
| Time | Latitude | Longitude | Altitude | Speed | Heading |
|---|---|---|---|---|---|
| 2026-04-29 19:48 | 26.52900 | -81.75145 | 28 ft | 0 kts | 257° |
| 2026-04-29 19:58 | 26.52903 | -81.75131 | 27 ft | 2 kts | 257° |
| 2026-04-29 19:58 | 26.52906 | -81.75115 | 27 ft | 2 kts | 257° |
| 2026-04-29 19:58 | 26.52909 | -81.75098 | 27 ft | 2 kts | 257° |
| 2026-04-29 19:59 | 26.52913 | -81.75082 | 27 ft | 2 kts | 257° |
| 2026-04-29 19:59 | 26.52916 | -81.75066 | 27 ft | 2 kts | 267° |
| 2026-04-29 19:59 | 26.52912 | -81.75050 | 27 ft | 2 kts | 307° |
| 2026-04-29 19:59 | 26.52906 | -81.75043 | 27 ft | 0 kts | 327° |
| 2026-04-29 20:00 | 26.52901 | -81.75040 | 27 ft | 0 kts | 324° |
| 2026-04-29 20:00 | 26.52902 | -81.75040 | 27 ft | 0 kts | 324° |
| 2026-04-29 20:01 | 26.52925 | -81.75060 | 27 ft | 10 kts | 323° |
| 2026-04-29 20:01 | 26.53013 | -81.75130 | 27 ft | 15 kts | 328° |
| 2026-04-29 20:02 | 26.53089 | -81.75085 | 27 ft | 13 kts | 54° |
| 2026-04-29 20:02 | 26.53156 | -81.75045 | 27 ft | 11 kts | 336° |
| 2026-04-29 20:02 | 26.53217 | -81.75091 | 27 ft | 9 kts | 323° |
| 2026-04-29 20:02 | 26.53257 | -81.75124 | 27 ft | 12 kts | 323° |
| 2026-04-29 20:03 | 26.53379 | -81.75222 | 27 ft | 19 kts | 323° |
| 2026-04-29 20:03 | 26.53503 | -81.75321 | 27 ft | 23 kts | 324° |
| 2026-04-29 20:03 | 26.53626 | -81.75297 | 27 ft | 20 kts | 53° |
| 2026-04-29 20:03 | 26.53710 | -81.75171 | 27 ft | 19 kts | 53° |
| 2026-04-29 20:04 | 26.53793 | -81.75051 | 27 ft | 18 kts | 55° |
| 2026-04-29 20:04 | 26.53863 | -81.74934 | 27 ft | 17 kts | 54° |
| 2026-04-29 20:04 | 26.53935 | -81.74823 | 27 ft | 17 kts | 53° |
| 2026-04-29 20:04 | 26.54009 | -81.74712 | 27 ft | 19 kts | 53° |
| 2026-04-29 20:05 | 26.54101 | -81.74571 | 27 ft | 25 kts | 54° |
| 2026-04-29 20:05 | 26.54214 | -81.74397 | 27 ft | 30 kts | 53° |
| 2026-04-29 20:05 | 26.54346 | -81.74193 | 27 ft | 32 kts | 54° |
| 2026-04-29 20:05 | 26.54456 | -81.74023 | 27 ft | 18 kts | 53° |
| 2026-04-29 20:06 | 26.54506 | -81.73994 | 27 ft | 0 kts | 353° |
| 2026-04-29 20:06 | 26.54512 | -81.73996 | 27 ft | 1 kts | 342° |
| 2026-04-29 20:06 | 26.54548 | -81.74027 | 27 ft | 13 kts | 295° |
| 2026-04-29 20:06 | 26.54488 | -81.74175 | 27 ft | 34 kts | 234° |
| 2026-04-29 20:07 | 26.54236 | -81.74563 | 27 ft | 96 kts | 234° |
| 2026-04-29 20:07 | 26.53696 | -81.75393 | 28 ft | 165 kts | 234° |
| 2026-04-29 20:07 | 26.52974 | -81.76430 | 664 ft | 175 kts | 233° |
| 2026-04-29 20:07 | 26.52230 | -81.77567 | 1364 ft | 188 kts | 237° |
| 2026-04-29 20:08 | 26.51483 | -81.78775 | 2007 ft | 196 kts | 236° |
| 2026-04-29 20:08 | 26.50945 | -81.79620 | 2340 ft | 207 kts | 235° |
| 2026-04-29 20:08 | 26.49888 | -81.81503 | 2983 ft | 227 kts | 249° |
| 2026-04-29 20:08 | 26.49598 | -81.83310 | 3414 ft | 246 kts | 269° |
| 2026-04-29 20:09 | 26.49566 | -81.85251 | 4062 ft | 257 kts | 271° |
| 2026-04-29 20:09 | 26.49808 | -81.87250 | 4693 ft | 268 kts | 292° |
| 2026-04-29 20:09 | 26.50842 | -81.88991 | 5342 ft | 276 kts | 319° |
| 2026-04-29 20:09 | 26.52410 | -81.90190 | 6205 ft | 277 kts | 334° |
| 2026-04-29 20:10 | 26.54203 | -81.90897 | 7122 ft | 275 kts | 349° |
| 2026-04-29 20:10 | 26.56084 | -81.91170 | 7984 ft | 276 kts | 355° |
| 2026-04-29 20:10 | 26.58013 | -81.91345 | 8850 ft | 277 kts | 354° |
| 2026-04-29 20:10 | 26.59913 | -81.91540 | 9680 ft | 279 kts | 354° |
| 2026-04-29 20:11 | 26.61861 | -81.91779 | 10343 ft | 287 kts | 353° |
| 2026-04-29 20:11 | 26.63897 | -81.91928 | 10868 ft | 301 kts | 360° |
| 2026-04-29 20:11 | 26.66044 | -81.91738 | 11312 ft | 317 kts | 6° |
| 2026-04-29 20:11 | 26.68277 | -81.91355 | 11757 ft | 332 kts | 8° |
| 2026-04-29 20:12 | 26.70583 | -81.90930 | 12179 ft | 346 kts | 7° |
| 2026-04-29 20:12 | 26.73033 | -81.90501 | 12603 ft | 360 kts | 7° |
| 2026-04-29 20:12 | 26.75540 | -81.90070 | 12982 ft | 374 kts | 8° |
| 2026-04-29 20:12 | 26.78099 | -81.89309 | 13489 ft | 385 kts | 19° |
| 2026-04-29 20:13 | 26.80543 | -81.88016 | 14258 ft | 389 kts | 25° |
| 2026-04-29 20:13 | 26.82103 | -81.87024 | 14785 ft | 390 kts | 27° |
| 2026-04-29 20:13 | 26.85204 | -81.84927 | 15770 ft | 393 kts | 28° |
| 2026-04-29 20:13 | 26.87560 | -81.83330 | 16405 ft | 397 kts | 28° |
| 2026-04-29 20:14 | 26.89910 | -81.81763 | 17183 ft | 397 kts | 28° |
| 2026-04-29 20:14 | 26.92300 | -81.80193 | 17807 ft | 401 kts | 27° |
| 2026-04-29 20:14 | 26.94757 | -81.78652 | 18347 ft | 406 kts | 25° |
| 2026-04-29 20:14 | 26.97273 | -81.77201 | 18864 ft | 410 kts | 22° |
| 2026-04-29 20:15 | 26.99954 | -81.76083 | 19409 ft | 410 kts | 12° |
| 2026-04-29 20:15 | 27.02779 | -81.75539 | 19991 ft | 410 kts | 2° |
| 2026-04-29 20:15 | 27.05640 | -81.75580 | 20508 ft | 412 kts | 352° |
| 2026-04-29 20:15 | 27.08473 | -81.76151 | 21009 ft | 415 kts | 345° |
| 2026-04-29 20:16 | 27.11245 | -81.77004 | 21541 ft | 417 kts | 342° |
| 2026-04-29 20:16 | 27.14051 | -81.77988 | 22018 ft | 422 kts | 341° |
| 2026-04-29 20:16 | 27.16817 | -81.78986 | 22568 ft | 424 kts | 340° |
| 2026-04-29 20:16 | 27.19661 | -81.80002 | 23029 ft | 428 kts | 341° |
| 2026-04-29 20:17 | 27.22498 | -81.80997 | 23564 ft | 430 kts | 341° |
| 2026-04-29 20:17 | 27.25383 | -81.81992 | 24165 ft | 431 kts | 341° |
| 2026-04-29 20:17 | 27.28269 | -81.82971 | 24700 ft | 432 kts | 341° |
| 2026-04-29 20:17 | 27.31160 | -81.83942 | 25101 ft | 437 kts | 341° |
| 2026-04-29 20:18 | 27.34092 | -81.84920 | 25601 ft | 438 kts | 341° |
| 2026-04-29 20:18 | 27.36986 | -81.85901 | 26071 ft | 440 kts | 341° |
| 2026-04-29 20:18 | 27.39942 | -81.86944 | 26549 ft | 441 kts | 340° |
| 2026-04-29 20:18 | 27.42855 | -81.87993 | 27226 ft | 438 kts | 340° |
| 2026-04-29 20:19 | 27.45728 | -81.89037 | 27903 ft | 434 kts | 340° |
| 2026-04-29 20:19 | 27.48569 | -81.90069 | 28597 ft | 430 kts | 340° |
| 2026-04-29 20:19 | 27.51426 | -81.91106 | 29223 ft | 426 kts | 340° |
| 2026-04-29 20:19 | 27.54246 | -81.92130 | 29681 ft | 427 kts | 340° |
| 2026-04-29 20:20 | 27.57074 | -81.93156 | 29935 ft | 431 kts | 340° |
| 2026-04-29 20:20 | 27.59939 | -81.94194 | 29934 ft | 432 kts | 340° |
| 2026-04-29 20:20 | 27.65605 | -81.96240 | 29934 ft | 426 kts | 340° |
| 2026-04-29 20:21 | 27.71270 | -81.98283 | 29934 ft | 429 kts | 340° |
| 2026-04-29 20:21 | 27.76919 | -82.00584 | 29942 ft | 427 kts | 334° |
| 2026-04-29 20:22 | 27.82134 | -82.03729 | 29950 ft | 425 kts | 327° |
| 2026-04-29 20:22 | 27.87115 | -82.07337 | 29951 ft | 427 kts | 326° |
| 2026-04-29 20:23 | 27.92071 | -82.11022 | 29958 ft | 423 kts | 326° |
| 2026-04-29 20:23 | 27.96999 | -82.14687 | 29959 ft | 423 kts | 326° |
| 2026-04-29 20:24 | 28.01913 | -82.18331 | 29959 ft | 423 kts | 326° |
| 2026-04-29 20:24 | 28.06838 | -82.21979 | 29960 ft | 424 kts | 326° |
| 2026-04-29 20:25 | 28.11801 | -82.25658 | 29961 ft | 425 kts | 326° |
| 2026-04-29 20:25 | 28.16775 | -82.29346 | 29964 ft | 426 kts | 326° |
| 2026-04-29 20:26 | 28.21714 | -82.33011 | 29969 ft | 424 kts | 326° |
| 2026-04-29 20:26 | 28.26662 | -82.36683 | 29972 ft | 425 kts | 326° |
| 2026-04-29 20:27 | 28.30800 | -82.39755 | 29970 ft | 426 kts | 326° |
| 2026-04-29 20:27 | 28.36561 | -82.44041 | 29966 ft | 425 kts | 326° |
| 2026-04-29 20:28 | 28.41501 | -82.47723 | 29975 ft | 425 kts | 326° |
| 2026-04-29 20:28 | 28.46433 | -82.51402 | 29977 ft | 424 kts | 326° |
| 2026-04-29 20:29 | 28.51359 | -82.55081 | 29969 ft | 424 kts | 326° |
| 2026-04-29 20:29 | 28.56282 | -82.58762 | 29976 ft | 424 kts | 326° |
| 2026-04-29 20:30 | 28.61226 | -82.62463 | 29971 ft | 425 kts | 326° |
| 2026-04-29 20:30 | 28.66144 | -82.66148 | 29965 ft | 425 kts | 326° |
| 2026-04-29 20:31 | 28.71103 | -82.69868 | 29971 ft | 425 kts | 325° |
| 2026-04-29 20:31 | 28.76019 | -82.73560 | 29961 ft | 424 kts | 326° |
| 2026-04-29 20:32 | 28.80982 | -82.77292 | 29967 ft | 425 kts | 326° |
| 2026-04-29 20:32 | 28.85917 | -82.81007 | 29963 ft | 423 kts | 325° |
| 2026-04-29 20:33 | 28.90817 | -82.84699 | 29964 ft | 425 kts | 326° |
| 2026-04-29 20:33 | 28.95719 | -82.88399 | 29960 ft | 423 kts | 325° |
| 2026-04-29 20:34 | 29.00652 | -82.92126 | 29965 ft | 425 kts | 325° |
| 2026-04-29 20:34 | 29.05564 | -82.95841 | 29963 ft | 425 kts | 325° |
| 2026-04-29 20:35 | 29.10492 | -82.99574 | 29960 ft | 424 kts | 325° |
| 2026-04-29 20:35 | 29.15420 | -83.03309 | 29964 ft | 424 kts | 325° |
| 2026-04-29 20:36 | 29.20323 | -83.07028 | 29962 ft | 422 kts | 325° |
| 2026-04-29 20:36 | 29.25249 | -83.10773 | 29958 ft | 425 kts | 325° |
| 2026-04-29 20:37 | 29.30160 | -83.14508 | 29955 ft | 424 kts | 325° |
| 2026-04-29 20:37 | 29.35083 | -83.18257 | 29954 ft | 423 kts | 325° |
| 2026-04-29 20:38 | 29.39993 | -83.22002 | 29954 ft | 424 kts | 324° |
| 2026-04-29 20:38 | 29.44883 | -83.25737 | 29946 ft | 423 kts | 324° |
| 2026-04-29 20:39 | 29.49796 | -83.29491 | 29949 ft | 423 kts | 324° |
| 2026-04-29 20:39 | 29.54683 | -83.33229 | 29951 ft | 423 kts | 324° |
| 2026-04-29 20:40 | 29.59589 | -83.36988 | 29949 ft | 422 kts | 324° |
| 2026-04-29 20:40 | 29.64462 | -83.40725 | 29944 ft | 421 kts | 324° |
| 2026-04-29 20:41 | 29.69322 | -83.44459 | 29947 ft | 421 kts | 324° |
| 2026-04-29 20:41 | 29.74195 | -83.48206 | 29945 ft | 420 kts | 324° |
| 2026-04-29 20:42 | 29.79075 | -83.51963 | 29945 ft | 420 kts | 324° |
| 2026-04-29 20:42 | 29.83940 | -83.55712 | 29946 ft | 420 kts | 324° |
| 2026-04-29 20:43 | 29.88782 | -83.59445 | 29947 ft | 420 kts | 324° |
| 2026-04-29 20:43 | 29.93636 | -83.63195 | 29949 ft | 420 kts | 324° |
| 2026-04-29 20:44 | 29.98498 | -83.66956 | 29955 ft | 421 kts | 323° |
| 2026-04-29 20:44 | 30.03355 | -83.70715 | 29955 ft | 421 kts | 324° |
| 2026-04-29 20:45 | 30.08226 | -83.74494 | 29950 ft | 419 kts | 323° |
| 2026-04-29 20:45 | 30.13050 | -83.78249 | 29937 ft | 420 kts | 322° |
| 2026-04-29 20:46 | 30.17513 | -83.82580 | 29941 ft | 416 kts | 312° |
| 2026-04-29 20:46 | 30.21125 | -83.87775 | 29933 ft | 414 kts | 306° |
| 2026-04-29 20:47 | 30.24391 | -83.93240 | 29936 ft | 413 kts | 304° |
| 2026-04-29 20:47 | 30.27609 | -83.98739 | 29926 ft | 415 kts | 304° |
| 2026-04-29 20:48 | 30.30849 | -84.04265 | 29930 ft | 413 kts | 304° |
| 2026-04-29 20:48 | 30.34071 | -84.09744 | 29931 ft | 412 kts | 304° |
| 2026-04-29 20:49 | 30.37298 | -84.15222 | 29935 ft | 415 kts | 304° |
| 2026-04-29 20:49 | 30.40534 | -84.20718 | 29938 ft | 413 kts | 304° |
| 2026-04-29 20:50 | 30.43785 | -84.26247 | 29940 ft | 412 kts | 304° |
| 2026-04-29 20:50 | 30.46993 | -84.31704 | 29932 ft | 410 kts | 304° |
| 2026-04-29 20:51 | 30.50182 | -84.37141 | 29930 ft | 410 kts | 304° |
| 2026-04-29 20:51 | 30.53397 | -84.42628 | 29920 ft | 410 kts | 304° |
| 2026-04-29 20:52 | 30.56602 | -84.48099 | 29919 ft | 408 kts | 304° |
| 2026-04-29 20:52 | 30.59762 | -84.53503 | 29913 ft | 406 kts | 304° |
| 2026-04-29 20:53 | 30.62943 | -84.58954 | 29908 ft | 407 kts | 304° |
| 2026-04-29 20:53 | 30.66116 | -84.64397 | 29906 ft | 408 kts | 304° |
| 2026-04-29 20:54 | 30.70858 | -84.72549 | 29898 ft | 405 kts | 304° |
| 2026-04-29 20:55 | 30.73993 | -84.77948 | 29891 ft | 405 kts | 304° |
| 2026-04-29 20:55 | 30.77137 | -84.83375 | 29891 ft | 404 kts | 303° |
| 2026-04-29 20:56 | 30.79969 | -84.88963 | 29892 ft | 404 kts | 298° |
| 2026-04-29 20:56 | 30.82569 | -84.94753 | 29885 ft | 402 kts | 298° |
| 2026-04-29 20:57 | 30.85140 | -85.00486 | 29896 ft | 402 kts | 298° |
| 2026-04-29 20:57 | 30.87735 | -85.06213 | 29889 ft | 399 kts | 298° |
| 2026-04-29 20:58 | 30.90322 | -85.11878 | 29896 ft | 399 kts | 299° |
| 2026-04-29 20:58 | 30.92929 | -85.17577 | 29893 ft | 398 kts | 298° |
| 2026-04-29 20:59 | 30.95509 | -85.23225 | 29889 ft | 397 kts | 299° |
| 2026-04-29 20:59 | 30.98100 | -85.28898 | 29879 ft | 397 kts | 299° |
| 2026-04-29 21:00 | 31.00688 | -85.34570 | 29881 ft | 395 kts | 298° |
| 2026-04-29 21:00 | 31.03239 | -85.40173 | 29890 ft | 394 kts | 298° |
| 2026-04-29 21:01 | 31.05805 | -85.45814 | 29888 ft | 394 kts | 299° |
| 2026-04-29 21:01 | 31.08354 | -85.51431 | 29905 ft | 391 kts | 299° |
| 2026-04-29 21:02 | 31.10908 | -85.57066 | 29919 ft | 392 kts | 299° |
| 2026-04-29 21:02 | 31.13436 | -85.62656 | 29920 ft | 392 kts | 299° |
| 2026-04-29 21:03 | 31.15993 | -85.68314 | 29922 ft | 390 kts | 298° |
| 2026-04-29 21:03 | 31.18506 | -85.73877 | 29928 ft | 391 kts | 298° |
| 2026-04-29 21:04 | 31.21035 | -85.79489 | 29925 ft | 389 kts | 298° |
| 2026-04-29 21:04 | 31.23547 | -85.85080 | 29928 ft | 389 kts | 298° |
| 2026-04-29 21:05 | 31.26051 | -85.90657 | 29927 ft | 389 kts | 299° |
| 2026-04-29 21:05 | 31.28544 | -85.96223 | 29922 ft | 386 kts | 298° |
| 2026-04-29 21:06 | 31.31051 | -86.01814 | 29924 ft | 388 kts | 298° |
| 2026-04-29 21:06 | 31.33534 | -86.07355 | 29913 ft | 388 kts | 298° |
| 2026-04-29 21:07 | 31.36034 | -86.12955 | 29897 ft | 391 kts | 298° |
| 2026-04-29 21:07 | 31.38562 | -86.18636 | 29896 ft | 392 kts | 298° |
| 2026-04-29 21:08 | 31.41064 | -86.24248 | 29897 ft | 393 kts | 298° |
| 2026-04-29 21:08 | 31.43610 | -86.29976 | 29899 ft | 394 kts | 297° |
| 2026-04-29 21:09 | 31.46118 | -86.35629 | 29894 ft | 393 kts | 297° |
| 2026-04-29 21:09 | 31.48641 | -86.41332 | 29897 ft | 397 kts | 297° |
| 2026-04-29 21:10 | 31.51166 | -86.47038 | 29888 ft | 396 kts | 297° |
| 2026-04-29 21:10 | 31.53698 | -86.52772 | 29890 ft | 398 kts | 297° |
| 2026-04-29 21:11 | 31.56255 | -86.58566 | 29890 ft | 396 kts | 297° |
| 2026-04-29 21:11 | 31.58786 | -86.64314 | 29893 ft | 399 kts | 297° |
| 2026-04-29 21:12 | 31.61332 | -86.70103 | 29895 ft | 399 kts | 296° |
| 2026-04-29 21:12 | 31.63859 | -86.75848 | 29895 ft | 396 kts | 296° |
| 2026-04-29 21:13 | 31.66385 | -86.81612 | 29890 ft | 397 kts | 296° |
| 2026-04-29 21:13 | 31.68902 | -86.87373 | 29896 ft | 401 kts | 296° |
| 2026-04-29 21:14 | 31.71444 | -86.93189 | 29892 ft | 398 kts | 296° |
| 2026-04-29 21:14 | 31.73962 | -86.98968 | 29893 ft | 399 kts | 295° |
| 2026-04-29 21:15 | 31.76473 | -87.04733 | 29892 ft | 396 kts | 295° |
| 2026-04-29 21:15 | 31.78978 | -87.10492 | 29888 ft | 395 kts | 295° |
| 2026-04-29 21:16 | 31.81477 | -87.16245 | 29886 ft | 394 kts | 296° |
| 2026-04-29 21:16 | 31.83963 | -87.21976 | 29884 ft | 396 kts | 295° |
| 2026-04-29 21:17 | 31.86469 | -87.27758 | 29881 ft | 396 kts | 295° |
| 2026-04-29 21:17 | 31.88952 | -87.33503 | 29882 ft | 395 kts | 295° |
| 2026-04-29 21:18 | 31.91430 | -87.39239 | 29886 ft | 395 kts | 295° |
| 2026-04-29 21:18 | 31.93903 | -87.44979 | 29892 ft | 394 kts | 295° |
| 2026-04-29 21:19 | 31.96359 | -87.50688 | 29897 ft | 392 kts | 295° |
| 2026-04-29 21:19 | 31.98841 | -87.56474 | 29900 ft | 393 kts | 294° |
| 2026-04-29 21:20 | 32.01291 | -87.62171 | 29905 ft | 393 kts | 294° |
| 2026-04-29 21:20 | 32.03760 | -87.67944 | 29903 ft | 393 kts | 294° |
| 2026-04-29 21:21 | 32.06216 | -87.73688 | 29911 ft | 396 kts | 293° |
| 2026-04-29 21:21 | 32.08685 | -87.79462 | 29919 ft | 392 kts | 293° |
| 2026-04-29 21:22 | 32.11131 | -87.85227 | 29918 ft | 393 kts | 293° |
| 2026-04-29 21:22 | 32.13582 | -87.90991 | 29924 ft | 393 kts | 294° |
| 2026-04-29 21:23 | 32.16041 | -87.96784 | 29917 ft | 393 kts | 292° |
| 2026-04-29 21:23 | 32.18478 | -88.02542 | 29919 ft | 394 kts | 293° |
| 2026-04-29 21:24 | 32.20916 | -88.08299 | 29916 ft | 394 kts | 292° |
| 2026-04-29 21:24 | 32.23356 | -88.14067 | 29911 ft | 391 kts | 294° |
| 2026-04-29 21:25 | 32.25786 | -88.19830 | 29900 ft | 393 kts | 293° |
| 2026-04-29 21:25 | 32.28218 | -88.25596 | 29904 ft | 393 kts | 293° |
| 2026-04-29 21:26 | 32.30660 | -88.31385 | 29901 ft | 390 kts | 293° |
| 2026-04-29 21:26 | 32.33060 | -88.37109 | 29903 ft | 393 kts | 293° |
| 2026-04-29 21:27 | 32.35487 | -88.42882 | 29908 ft | 390 kts | 293° |
| 2026-04-29 21:27 | 32.37932 | -88.48600 | 29914 ft | 392 kts | 294° |
| 2026-04-29 21:28 | 32.40524 | -88.54269 | 29913 ft | 393 kts | 295° |
| 2026-04-29 21:28 | 32.43175 | -88.59961 | 29916 ft | 391 kts | 296° |
| 2026-04-29 21:29 | 32.45798 | -88.65604 | 29915 ft | 392 kts | 295° |
| 2026-04-29 21:29 | 32.48418 | -88.71287 | 29919 ft | 393 kts | 295° |
| 2026-04-29 21:30 | 32.51018 | -88.76949 | 29921 ft | 389 kts | 295° |
| 2026-04-29 21:30 | 32.53585 | -88.82555 | 29918 ft | 391 kts | 294° |
| 2026-04-29 21:31 | 32.56174 | -88.88223 | 29918 ft | 392 kts | 295° |
| 2026-04-29 21:31 | 32.58764 | -88.93900 | 29915 ft | 391 kts | 295° |
| 2026-04-29 21:32 | 32.61346 | -88.99568 | 29915 ft | 389 kts | 295° |
| 2026-04-29 21:32 | 32.63918 | -89.05231 | 29914 ft | 395 kts | 294° |
| 2026-04-29 21:33 | 32.66518 | -89.10959 | 29924 ft | 388 kts | 294° |
| 2026-04-29 21:33 | 32.69073 | -89.16604 | 29917 ft | 392 kts | 294° |
| 2026-04-29 21:34 | 32.71649 | -89.22297 | 29924 ft | 390 kts | 294° |
| 2026-04-29 21:34 | 32.74213 | -89.27966 | 29915 ft | 391 kts | 294° |
| 2026-04-29 21:35 | 32.76773 | -89.33634 | 29912 ft | 390 kts | 294° |
| 2026-04-29 21:35 | 32.79330 | -89.39325 | 29911 ft | 391 kts | 294° |
| 2026-04-29 21:36 | 32.81898 | -89.45038 | 29909 ft | 391 kts | 294° |
| 2026-04-29 21:36 | 32.84450 | -89.50710 | 29915 ft | 391 kts | 294° |
| 2026-04-29 21:37 | 32.87006 | -89.56386 | 29910 ft | 388 kts | 294° |
| 2026-04-29 21:37 | 32.89557 | -89.62073 | 29909 ft | 391 kts | 294° |
| 2026-04-29 21:38 | 32.92119 | -89.67804 | 29915 ft | 391 kts | 294° |
| 2026-04-29 21:38 | 32.94639 | -89.73444 | 29907 ft | 388 kts | 293° |
| 2026-04-29 21:39 | 32.97180 | -89.79157 | 29901 ft | 390 kts | 294° |
| 2026-04-29 21:39 | 32.99710 | -89.84845 | 29907 ft | 390 kts | 293° |
| 2026-04-29 21:40 | 33.02233 | -89.90536 | 29907 ft | 387 kts | 293° |
| 2026-04-29 21:40 | 33.04756 | -89.96233 | 29920 ft | 389 kts | 294° |
| 2026-04-29 21:41 | 33.07275 | -90.01956 | 29912 ft | 391 kts | 292° |
| 2026-04-29 21:41 | 33.09802 | -90.07685 | 29905 ft | 390 kts | 294° |
| 2026-04-29 21:42 | 33.12342 | -90.13437 | 29895 ft | 390 kts | 293° |
| 2026-04-29 21:42 | 33.14871 | -90.19144 | 29916 ft | 391 kts | 293° |
| 2026-04-29 21:43 | 33.17413 | -90.24910 | 29908 ft | 389 kts | 294° |
| 2026-04-29 21:43 | 33.19936 | -90.30658 | 29912 ft | 393 kts | 292° |
| 2026-04-29 21:44 | 33.22464 | -90.36435 | 29918 ft | 393 kts | 293° |
| 2026-04-29 21:44 | 33.24993 | -90.42207 | 29917 ft | 392 kts | 293° |
| 2026-04-29 21:45 | 33.27529 | -90.48017 | 29939 ft | 393 kts | 292° |
| 2026-04-29 21:45 | 33.30053 | -90.53795 | 29933 ft | 393 kts | 293° |
| 2026-04-29 21:46 | 33.32563 | -90.59557 | 29938 ft | 393 kts | 293° |
| 2026-04-29 21:46 | 33.35092 | -90.65356 | 29936 ft | 393 kts | 294° |
| 2026-04-29 21:47 | 33.37628 | -90.71137 | 29935 ft | 394 kts | 292° |
| 2026-04-29 21:47 | 33.40139 | -90.76938 | 29945 ft | 392 kts | 294° |
| 2026-04-29 21:48 | 33.42722 | -90.82764 | 29935 ft | 399 kts | 293° |
| 2026-04-29 21:48 | 33.45181 | -90.88618 | 29944 ft | 392 kts | 292° |
| 2026-04-29 21:49 | 33.47628 | -90.94428 | 29953 ft | 395 kts | 293° |
| 2026-04-29 21:49 | 33.50187 | -91.00289 | 29926 ft | 399 kts | 291° |
| 2026-04-29 21:50 | 33.52724 | -91.06137 | 29960 ft | 396 kts | 292° |
| 2026-04-29 21:50 | 33.55298 | -91.11915 | 29940 ft | 392 kts | 293° |
| 2026-04-29 21:51 | 33.57738 | -91.17748 | 29946 ft | 393 kts | 292° |
| 2026-04-29 21:51 | 33.61440 | -91.26508 | 29943 ft | 392 kts | 291° |
| 2026-04-29 21:52 | 33.63896 | -91.32357 | 29948 ft | 393 kts | 291° |
| 2026-04-29 21:52 | 33.66378 | -91.38221 | 29934 ft | 394 kts | 292° |
| 2026-04-29 21:53 | 33.68873 | -91.44067 | 29938 ft | 396 kts | 293° |
| 2026-04-29 21:53 | 33.71370 | -91.49937 | 29944 ft | 394 kts | 291° |
| 2026-04-29 21:54 | 33.73862 | -91.55817 | 29950 ft | 394 kts | 292° |
| 2026-04-29 21:54 | 33.76344 | -91.61683 | 29945 ft | 395 kts | 292° |
| 2026-04-29 21:55 | 33.78831 | -91.67573 | 29950 ft | 396 kts | 291° |
| 2026-04-29 21:55 | 33.81316 | -91.73460 | 29960 ft | 393 kts | 291° |
| 2026-04-29 21:56 | 33.83796 | -91.79365 | 29954 ft | 397 kts | 291° |
| 2026-04-29 21:56 | 33.86285 | -91.85300 | 29954 ft | 393 kts | 292° |
| 2026-04-29 21:57 | 33.88761 | -91.91199 | 29949 ft | 394 kts | 291° |
| 2026-04-29 21:57 | 33.91219 | -91.97060 | 29951 ft | 396 kts | 291° |
| 2026-04-29 21:58 | 33.93691 | -92.02959 | 29944 ft | 393 kts | 292° |
| 2026-04-29 21:58 | 33.96185 | -92.08929 | 29949 ft | 397 kts | 291° |
| 2026-04-29 21:59 | 33.98650 | -92.14846 | 29952 ft | 392 kts | 291° |
| 2026-04-29 21:59 | 34.01100 | -92.20743 | 29957 ft | 393 kts | 290° |
| 2026-04-29 22:00 | 34.03550 | -92.26650 | 29952 ft | 392 kts | 291° |
| 2026-04-29 22:00 | 34.06014 | -92.32594 | 29953 ft | 395 kts | 291° |
| 2026-04-29 22:01 | 34.08454 | -92.38482 | 29954 ft | 391 kts | 291° |
| 2026-04-29 22:01 | 34.10895 | -92.44382 | 29953 ft | 392 kts | 291° |
| 2026-04-29 22:02 | 34.13340 | -92.50320 | 29951 ft | 393 kts | 291° |
| 2026-04-29 22:02 | 34.15756 | -92.56199 | 29952 ft | 393 kts | 292° |
| 2026-04-29 22:03 | 34.18171 | -92.62094 | 29954 ft | 393 kts | 291° |
| 2026-04-29 22:03 | 34.20590 | -92.68007 | 29959 ft | 391 kts | 291° |
| 2026-04-29 22:04 | 34.23001 | -92.73900 | 29957 ft | 393 kts | 290° |
| 2026-04-29 22:04 | 34.25414 | -92.79801 | 29956 ft | 390 kts | 290° |
| 2026-04-29 22:05 | 34.27798 | -92.85642 | 29956 ft | 389 kts | 290° |
| 2026-04-29 22:06 | 34.31371 | -92.94427 | 29958 ft | 392 kts | 291° |
| 2026-04-29 22:06 | 34.33751 | -93.00277 | 29963 ft | 384 kts | 291° |
| 2026-04-29 22:07 | 34.36109 | -93.06081 | 29969 ft | 387 kts | 291° |
| 2026-04-29 22:07 | 34.38472 | -93.11911 | 29971 ft | 389 kts | 290° |
| 2026-04-29 22:08 | 34.40829 | -93.17747 | 29970 ft | 385 kts | 291° |
| 2026-04-29 22:08 | 34.43179 | -93.23575 | 29973 ft | 382 kts | 291° |
| 2026-04-29 22:09 | 34.45517 | -93.29377 | 29972 ft | 386 kts | 290° |
| 2026-04-29 22:09 | 34.47856 | -93.35199 | 29970 ft | 384 kts | 291° |
| 2026-04-29 22:10 | 34.50153 | -93.40931 | 29975 ft | 380 kts | 291° |
| 2026-04-29 22:10 | 34.52468 | -93.46717 | 29977 ft | 383 kts | 291° |
| 2026-04-29 22:11 | 34.54804 | -93.52565 | 29980 ft | 387 kts | 291° |
| 2026-04-29 22:11 | 34.56355 | -93.56441 | 29982 ft | 380 kts | 291° |
| 2026-04-29 22:12 | 34.58651 | -93.62219 | 29982 ft | 380 kts | 291° |
| 2026-04-29 22:12 | 34.60934 | -93.67964 | 29986 ft | 382 kts | 290° |
| 2026-04-29 22:13 | 34.63244 | -93.73780 | 29984 ft | 378 kts | 291° |
| 2026-04-29 22:13 | 34.65528 | -93.79533 | 29986 ft | 377 kts | 291° |
| 2026-04-29 22:14 | 34.67797 | -93.85260 | 29989 ft | 379 kts | 290° |
| 2026-04-29 22:14 | 34.69783 | -93.90277 | 29987 ft | 376 kts | 290° |
| 2026-04-29 22:15 | 34.72028 | -93.95964 | 29995 ft | 374 kts | 291° |
| 2026-04-29 22:15 | 34.74275 | -94.01672 | 29990 ft | 373 kts | 290° |
| 2026-04-29 22:16 | 34.76524 | -94.07390 | 29990 ft | 376 kts | 290° |
| 2026-04-29 22:16 | 34.78771 | -94.13100 | 29998 ft | 373 kts | 290° |
| 2026-04-29 22:17 | 34.81010 | -94.18813 | 29999 ft | 375 kts | 290° |
| 2026-04-29 22:17 | 34.83213 | -94.24435 | 29996 ft | 370 kts | 290° |
| 2026-04-29 22:18 | 34.85059 | -94.29168 | 29995 ft | 373 kts | 291° |
| 2026-04-29 22:18 | 34.87265 | -94.34824 | 29996 ft | 369 kts | 290° |
| 2026-04-29 22:19 | 34.89455 | -94.40462 | 29993 ft | 371 kts | 291° |
| 2026-04-29 22:19 | 34.91653 | -94.46116 | 29995 ft | 369 kts | 291° |
| 2026-04-29 22:20 | 34.93851 | -94.51796 | 29994 ft | 370 kts | 291° |
| 2026-04-29 22:20 | 34.96039 | -94.57454 | 29995 ft | 368 kts | 291° |
| 2026-04-29 22:21 | 34.98208 | -94.63068 | 30000 ft | 370 kts | 291° |
| 2026-04-29 22:21 | 35.00385 | -94.68713 | 30006 ft | 367 kts | 290° |
| 2026-04-29 22:22 | 35.02569 | -94.74368 | 30003 ft | 366 kts | 290° |
| 2026-04-29 22:22 | 35.04739 | -94.79999 | 30005 ft | 367 kts | 290° |
| 2026-04-29 22:23 | 35.06882 | -94.85577 | 30003 ft | 365 kts | 290° |
| 2026-04-29 22:23 | 35.09039 | -94.91201 | 30001 ft | 364 kts | 290° |
| 2026-04-29 22:24 | 35.11186 | -94.96813 | 29999 ft | 366 kts | 291° |
| 2026-04-29 22:24 | 35.13330 | -95.02426 | 30007 ft | 365 kts | 290° |
| 2026-04-29 22:25 | 35.15467 | -95.08026 | 30008 ft | 366 kts | 290° |
| 2026-04-29 22:25 | 35.17614 | -95.13674 | 30016 ft | 364 kts | 291° |
| 2026-04-29 22:26 | 35.19738 | -95.19260 | 30010 ft | 364 kts | 291° |
| 2026-04-29 22:26 | 35.21874 | -95.24887 | 30019 ft | 362 kts | 290° |
| 2026-04-29 22:27 | 35.23998 | -95.30504 | 30018 ft | 365 kts | 290° |
| 2026-04-29 22:27 | 35.26115 | -95.36101 | 30017 ft | 362 kts | 290° |
| 2026-04-29 22:28 | 35.28223 | -95.41685 | 30014 ft | 362 kts | 290° |
| 2026-04-29 22:28 | 35.30335 | -95.47293 | 30021 ft | 363 kts | 291° |
| 2026-04-29 22:29 | 35.32434 | -95.52879 | 30021 ft | 362 kts | 290° |
| 2026-04-29 22:29 | 35.34547 | -95.58504 | 30023 ft | 362 kts | 290° |
| 2026-04-29 22:30 | 35.36639 | -95.64089 | 30025 ft | 363 kts | 290° |
| 2026-04-29 22:30 | 35.38739 | -95.69701 | 30029 ft | 362 kts | 290° |
| 2026-04-29 22:31 | 35.40835 | -95.75304 | 30030 ft | 360 kts | 289° |
| 2026-04-29 22:31 | 35.42912 | -95.80870 | 30041 ft | 361 kts | 289° |
| 2026-04-29 22:32 | 35.44993 | -95.86468 | 30030 ft | 360 kts | 290° |
| 2026-04-29 22:32 | 35.47068 | -95.92052 | 30046 ft | 361 kts | 289° |
| 2026-04-29 22:33 | 35.49136 | -95.97630 | 30044 ft | 360 kts | 290° |
| 2026-04-29 22:33 | 35.51165 | -96.03241 | 30043 ft | 360 kts | 288° |
| 2026-04-29 22:34 | 35.53061 | -96.08892 | 30038 ft | 360 kts | 288° |
| 2026-04-29 22:34 | 35.54946 | -96.14578 | 30031 ft | 358 kts | 288° |
| 2026-04-29 22:35 | 35.56841 | -96.20269 | 30040 ft | 360 kts | 288° |
| 2026-04-29 22:35 | 35.58735 | -96.25931 | 30033 ft | 360 kts | 288° |
| 2026-04-29 22:36 | 35.60637 | -96.31616 | 30032 ft | 359 kts | 288° |
| 2026-04-29 22:36 | 35.62521 | -96.37257 | 30034 ft | 360 kts | 288° |
| 2026-04-29 22:37 | 35.64425 | -96.42966 | 30041 ft | 358 kts | 288° |
| 2026-04-29 22:37 | 35.66326 | -96.48681 | 30038 ft | 359 kts | 288° |
| 2026-04-29 22:38 | 35.68210 | -96.54359 | 30046 ft | 360 kts | 288° |
| 2026-04-29 22:38 | 35.70112 | -96.60091 | 30049 ft | 358 kts | 288° |
| 2026-04-29 22:39 | 35.72006 | -96.65813 | 30054 ft | 359 kts | 287° |
| 2026-04-29 22:39 | 35.73881 | -96.71490 | 30058 ft | 358 kts | 288° |
| 2026-04-29 22:40 | 35.75766 | -96.77209 | 30060 ft | 358 kts | 287° |
| 2026-04-29 22:40 | 35.77631 | -96.82885 | 30062 ft | 357 kts | 287° |
| 2026-04-29 22:41 | 35.79490 | -96.88558 | 30058 ft | 358 kts | 287° |
| 2026-04-29 22:41 | 35.81343 | -96.94212 | 30055 ft | 358 kts | 287° |
| 2026-04-29 22:42 | 35.83205 | -96.99907 | 30053 ft | 357 kts | 287° |
| 2026-04-29 22:42 | 35.85056 | -97.05574 | 30045 ft | 358 kts | 288° |
| 2026-04-29 22:43 | 35.86909 | -97.11259 | 30046 ft | 358 kts | 287° |
| 2026-04-29 22:43 | 35.88764 | -97.16961 | 30056 ft | 357 kts | 288° |
| 2026-04-29 22:44 | 35.90601 | -97.22626 | 30052 ft | 358 kts | 288° |
| 2026-04-29 22:44 | 35.92448 | -97.28331 | 30063 ft | 357 kts | 288° |
| 2026-04-29 22:45 | 35.94279 | -97.33993 | 30064 ft | 357 kts | 287° |
| 2026-04-29 22:45 | 35.96108 | -97.39658 | 30061 ft | 356 kts | 287° |
| 2026-04-29 22:46 | 35.97937 | -97.45341 | 30064 ft | 357 kts | 287° |
| 2026-04-29 22:46 | 35.99751 | -97.50985 | 30058 ft | 356 kts | 287° |
| 2026-04-29 22:47 | 36.01582 | -97.56688 | 30061 ft | 356 kts | 287° |
| 2026-04-29 22:47 | 36.03398 | -97.62356 | 30065 ft | 357 kts | 287° |
| 2026-04-29 22:48 | 36.05217 | -97.68052 | 30048 ft | 355 kts | 287° |
| 2026-04-29 22:48 | 36.07027 | -97.73727 | 30055 ft | 356 kts | 287° |
| 2026-04-29 22:49 | 36.08834 | -97.79405 | 30053 ft | 356 kts | 287° |
| 2026-04-29 22:49 | 36.10645 | -97.85107 | 30060 ft | 356 kts | 287° |
| 2026-04-29 22:50 | 36.12437 | -97.90755 | 30052 ft | 355 kts | 287° |
| 2026-04-29 22:50 | 36.14231 | -97.96417 | 30056 ft | 354 kts | 287° |
| 2026-04-29 22:51 | 36.16018 | -98.02077 | 30057 ft | 354 kts | 287° |
| 2026-04-29 22:51 | 36.18702 | -98.10606 | 30049 ft | 355 kts | 287° |
| 2026-04-29 22:52 | 36.20492 | -98.16295 | 30055 ft | 355 kts | 287° |
| 2026-04-29 22:52 | 36.22263 | -98.21946 | 30067 ft | 356 kts | 287° |
| 2026-04-29 22:53 | 36.24040 | -98.27617 | 30049 ft | 354 kts | 287° |
| 2026-04-29 22:53 | 36.25816 | -98.33298 | 30052 ft | 354 kts | 287° |
| 2026-04-29 22:54 | 36.27600 | -98.39014 | 30054 ft | 354 kts | 287° |
| 2026-04-29 22:54 | 36.29360 | -98.44666 | 30059 ft | 355 kts | 286° |
| 2026-04-29 22:55 | 36.31128 | -98.50361 | 30059 ft | 355 kts | 287° |
| 2026-04-29 22:55 | 36.32890 | -98.56046 | 30058 ft | 353 kts | 287° |
| 2026-04-29 22:56 | 36.34650 | -98.61734 | 30060 ft | 355 kts | 287° |
| 2026-04-29 22:56 | 36.36412 | -98.67437 | 30059 ft | 355 kts | 286° |
| 2026-04-29 22:57 | 36.38169 | -98.73132 | 30063 ft | 354 kts | 286° |
| 2026-04-29 22:57 | 36.39926 | -98.78844 | 30062 ft | 354 kts | 286° |
| 2026-04-29 22:58 | 36.41671 | -98.84529 | 30051 ft | 354 kts | 286° |
| 2026-04-29 22:58 | 36.43426 | -98.90258 | 30061 ft | 354 kts | 286° |
| 2026-04-29 22:59 | 36.45166 | -98.95946 | 30064 ft | 353 kts | 287° |
| 2026-04-29 22:59 | 36.46903 | -99.01643 | 30069 ft | 356 kts | 286° |
| 2026-04-29 23:00 | 36.48642 | -99.07352 | 30076 ft | 353 kts | 286° |
| 2026-04-29 23:00 | 36.50388 | -99.13097 | 30063 ft | 354 kts | 286° |
| 2026-04-29 23:01 | 36.52117 | -99.18801 | 30062 ft | 356 kts | 286° |
| 2026-04-29 23:01 | 36.53862 | -99.24559 | 30061 ft | 355 kts | 286° |
| 2026-04-29 23:02 | 36.55591 | -99.30281 | 30063 ft | 355 kts | 286° |
| 2026-04-29 23:02 | 36.57321 | -99.36022 | 30064 ft | 354 kts | 286° |
| 2026-04-29 23:03 | 36.59037 | -99.41731 | 30072 ft | 355 kts | 286° |
| 2026-04-29 23:03 | 36.60755 | -99.47458 | 30068 ft | 354 kts | 286° |
| 2026-04-29 23:04 | 36.62469 | -99.53179 | 30083 ft | 355 kts | 286° |
| 2026-04-29 23:04 | 36.64183 | -99.58910 | 30071 ft | 354 kts | 286° |
| 2026-04-29 23:05 | 36.65896 | -99.64647 | 30071 ft | 353 kts | 286° |
| 2026-04-29 23:05 | 36.67607 | -99.70392 | 30068 ft | 354 kts | 285° |
| 2026-04-29 23:06 | 36.69306 | -99.76110 | 30078 ft | 353 kts | 286° |
| 2026-04-29 23:06 | 36.71015 | -99.81865 | 30082 ft | 354 kts | 285° |
| 2026-04-29 23:07 | 36.72710 | -99.87592 | 30077 ft | 353 kts | 285° |
| 2026-04-29 23:07 | 36.74408 | -99.93343 | 30077 ft | 354 kts | 285° |
| 2026-04-29 23:08 | 36.76106 | -99.99110 | 30074 ft | 354 kts | 285° |
| 2026-04-29 23:08 | 36.77790 | -100.04831 | 30081 ft | 354 kts | 286° |
| 2026-04-29 23:09 | 36.79487 | -100.10615 | 30086 ft | 354 kts | 286° |
| 2026-04-29 23:09 | 36.81169 | -100.16358 | 30069 ft | 354 kts | 286° |
| 2026-04-29 23:10 | 36.82850 | -100.22097 | 30079 ft | 354 kts | 285° |
| 2026-04-29 23:10 | 36.84095 | -100.26370 | 30088 ft | 354 kts | 286° |
| 2026-04-29 23:11 | 36.85767 | -100.32114 | 30079 ft | 354 kts | 285° |
| 2026-04-29 23:11 | 36.87446 | -100.37888 | 30086 ft | 354 kts | 286° |
| 2026-04-29 23:12 | 36.89120 | -100.43658 | 30092 ft | 354 kts | 286° |
| 2026-04-29 23:12 | 36.90769 | -100.49337 | 30081 ft | 333 kts | 286° |
| 2026-04-29 23:13 | 36.92320 | -100.54700 | 30093 ft | 331 kts | 285° |
| 2026-04-29 23:13 | 36.93868 | -100.60095 | 30084 ft | 330 kts | 286° |
| 2026-04-29 23:14 | 36.95428 | -100.65532 | 30084 ft | 331 kts | 285° |
| 2026-04-29 23:14 | 36.96989 | -100.70968 | 30092 ft | 331 kts | 285° |
| 2026-04-29 23:15 | 36.98539 | -100.76373 | 30083 ft | 332 kts | 285° |
| 2026-04-29 23:15 | 37.00087 | -100.81788 | 30083 ft | 331 kts | 285° |
| 2026-04-29 23:16 | 37.01637 | -100.87218 | 30087 ft | 333 kts | 285° |
| 2026-04-29 23:16 | 37.03174 | -100.92614 | 30095 ft | 331 kts | 285° |
| 2026-04-29 23:17 | 37.05104 | -100.97899 | 30091 ft | 338 kts | 295° |
| 2026-04-29 23:17 | 37.08070 | -101.02617 | 30095 ft | 348 kts | 302° |
| 2026-04-29 23:18 | 37.11283 | -101.07155 | 30086 ft | 347 kts | 302° |
| 2026-04-29 23:18 | 37.14475 | -101.11716 | 30076 ft | 350 kts | 302° |
| 2026-04-29 23:19 | 37.17649 | -101.16317 | 30080 ft | 348 kts | 302° |
| 2026-04-29 23:19 | 37.20796 | -101.20898 | 30088 ft | 348 kts | 302° |
| 2026-04-29 23:20 | 37.23960 | -101.25523 | 30097 ft | 348 kts | 302° |
| 2026-04-29 23:20 | 37.26113 | -101.28674 | 30096 ft | 351 kts | 302° |
| 2026-04-29 23:21 | 37.28987 | -101.32887 | 30079 ft | 348 kts | 302° |
| 2026-04-29 23:22 | 37.32146 | -101.37523 | 30095 ft | 351 kts | 302° |
| 2026-04-29 23:22 | 37.35322 | -101.42193 | 30083 ft | 349 kts | 302° |
| 2026-04-29 23:23 | 37.38479 | -101.46837 | 30075 ft | 351 kts | 302° |
| 2026-04-29 23:23 | 37.41662 | -101.51533 | 30077 ft | 355 kts | 302° |
| 2026-04-29 23:24 | 37.44834 | -101.56210 | 30080 ft | 352 kts | 302° |
| 2026-04-29 23:24 | 37.48020 | -101.60915 | 30075 ft | 350 kts | 302° |
| 2026-04-29 23:25 | 37.51185 | -101.65597 | 30089 ft | 353 kts | 302° |
| 2026-04-29 23:25 | 37.54366 | -101.70318 | 30087 ft | 353 kts | 302° |
| 2026-04-29 23:26 | 37.57530 | -101.75011 | 30104 ft | 350 kts | 302° |
| 2026-04-29 23:26 | 37.60692 | -101.79708 | 30101 ft | 352 kts | 302° |
| 2026-04-29 23:27 | 37.63853 | -101.84417 | 30085 ft | 355 kts | 302° |
| 2026-04-29 23:27 | 37.67038 | -101.89167 | 30085 ft | 355 kts | 302° |
| 2026-04-29 23:28 | 37.70217 | -101.93913 | 30077 ft | 354 kts | 303° |
| 2026-04-29 23:28 | 37.73413 | -101.98688 | 30081 ft | 357 kts | 302° |
| 2026-04-29 23:29 | 37.76594 | -102.03445 | 30076 ft | 354 kts | 303° |
| 2026-04-29 23:29 | 37.79805 | -102.08268 | 30082 ft | 360 kts | 303° |
| 2026-04-29 23:30 | 37.82987 | -102.13042 | 30087 ft | 354 kts | 303° |
| 2026-04-29 23:30 | 37.86350 | -102.17775 | 30070 ft | 364 kts | 305° |
| 2026-04-29 23:31 | 37.89813 | -102.22381 | 30085 ft | 358 kts | 306° |
| 2026-04-29 23:31 | 37.93249 | -102.26973 | 30070 ft | 360 kts | 306° |
| 2026-04-29 23:32 | 37.96710 | -102.31649 | 30070 ft | 364 kts | 306° |
| 2026-04-29 23:32 | 38.00153 | -102.36319 | 30071 ft | 362 kts | 306° |
| 2026-04-29 23:33 | 38.03589 | -102.40990 | 30075 ft | 364 kts | 306° |
| 2026-04-29 23:33 | 38.07019 | -102.45664 | 30066 ft | 363 kts | 307° |
| 2026-04-29 23:34 | 38.10485 | -102.50394 | 30078 ft | 366 kts | 306° |
| 2026-04-29 23:34 | 38.13922 | -102.55090 | 30067 ft | 363 kts | 307° |
| 2026-04-29 23:35 | 38.17389 | -102.59839 | 30065 ft | 367 kts | 307° |
| 2026-04-29 23:35 | 38.20836 | -102.64560 | 30071 ft | 368 kts | 306° |
| 2026-04-29 23:36 | 38.24324 | -102.69347 | 30060 ft | 365 kts | 306° |
| 2026-04-29 23:36 | 38.27790 | -102.74116 | 30067 ft | 367 kts | 306° |
| 2026-04-29 23:37 | 38.31251 | -102.78888 | 30084 ft | 370 kts | 306° |
| 2026-04-29 23:37 | 38.34740 | -102.83700 | 30075 ft | 369 kts | 307° |
| 2026-04-29 23:38 | 38.38225 | -102.88518 | 30079 ft | 371 kts | 306° |
| 2026-04-29 23:38 | 38.41645 | -102.93235 | 29616 ft | 363 kts | 306° |
| 2026-04-29 23:39 | 38.43388 | -102.95658 | 29376 ft | 381 kts | 307° |
| 2026-04-29 23:39 | 38.45216 | -102.98205 | 29152 ft | 399 kts | 307° |
| 2026-04-29 23:39 | 38.47125 | -103.00864 | 28894 ft | 402 kts | 307° |
| 2026-04-29 23:39 | 38.48990 | -103.03454 | 28646 ft | 403 kts | 308° |
| 2026-04-29 23:40 | 38.50888 | -103.06084 | 28400 ft | 405 kts | 307° |
| 2026-04-29 23:40 | 38.52799 | -103.08736 | 28158 ft | 409 kts | 308° |
| 2026-04-29 23:40 | 38.54729 | -103.11419 | 27905 ft | 411 kts | 308° |
| 2026-04-29 23:40 | 38.56664 | -103.14109 | 27649 ft | 411 kts | 308° |
| 2026-04-29 23:41 | 38.58588 | -103.16785 | 27397 ft | 411 kts | 308° |
| 2026-04-29 23:41 | 38.60515 | -103.19467 | 27149 ft | 412 kts | 308° |
| 2026-04-29 23:41 | 38.62463 | -103.22185 | 26893 ft | 415 kts | 308° |
| 2026-04-29 23:41 | 38.64411 | -103.24906 | 26631 ft | 414 kts | 308° |
| 2026-04-29 23:42 | 38.66355 | -103.27624 | 26380 ft | 411 kts | 308° |
| 2026-04-29 23:42 | 38.68263 | -103.30293 | 26134 ft | 411 kts | 308° |
| 2026-04-29 23:42 | 38.70216 | -103.33027 | 25881 ft | 412 kts | 308° |
| 2026-04-29 23:42 | 38.72150 | -103.35739 | 25619 ft | 413 kts | 308° |
| 2026-04-29 23:43 | 38.74046 | -103.38400 | 25378 ft | 410 kts | 308° |
| 2026-04-29 23:43 | 38.75984 | -103.41120 | 25122 ft | 412 kts | 308° |
| 2026-04-29 23:43 | 38.77918 | -103.43838 | 24859 ft | 412 kts | 309° |
| 2026-04-29 23:43 | 38.79830 | -103.46527 | 24596 ft | 410 kts | 309° |
| 2026-04-29 23:44 | 38.81742 | -103.49218 | 24325 ft | 410 kts | 309° |
| 2026-04-29 23:44 | 38.83659 | -103.51923 | 24075 ft | 408 kts | 309° |
| 2026-04-29 23:44 | 38.85547 | -103.54588 | 23820 ft | 407 kts | 309° |
| 2026-04-29 23:44 | 38.87447 | -103.57275 | 23555 ft | 408 kts | 309° |
| 2026-04-29 23:45 | 38.89354 | -103.59972 | 23291 ft | 407 kts | 309° |
| 2026-04-29 23:45 | 38.91255 | -103.62666 | 23036 ft | 406 kts | 309° |
| 2026-04-29 23:45 | 38.93140 | -103.65342 | 22790 ft | 406 kts | 308° |
| 2026-04-29 23:45 | 38.95037 | -103.68040 | 22523 ft | 403 kts | 309° |
| 2026-04-29 23:46 | 38.96919 | -103.70718 | 22262 ft | 403 kts | 309° |
| 2026-04-29 23:46 | 38.98784 | -103.73370 | 22008 ft | 403 kts | 309° |
| 2026-04-29 23:46 | 39.00660 | -103.76036 | 21755 ft | 401 kts | 309° |
| 2026-04-29 23:46 | 39.02545 | -103.78720 | 21500 ft | 401 kts | 309° |